Al Kharsaah — C6VG3 — position and weather

sailwx.info

Track history (hours):
 
Tides and Currents Weather Stations Pressure Air Temp Water Temp Dewpoint Dewpoint Depression Visibility Wind Speed Wind Dir Waves Ship Positions

Al Kharsaah

Last reported at 2014-Dec-12 04:16 UTC. Time now 2014-Dec-19 03:14 UTC.
Position N 36°23' E 014°06'.

Length 315 m; draft 9.5 m.

Type: Ship (hazmat cat D). MMSI: 309333000.

Date/timePositionNaut miles runAvg speedWind from/ knotsBaromVisibWave heightAir tempDewpointWater temp
2014-Dec-12 04:16N 36°23' E 014°06'811.7
2014-Dec-12 03:33N 36°27' E 013°57'1211.8
2014-Dec-12 02:32N 36°31' E 013°43'  
2014-Dec-09 05:30N 36°00' W 005°11'24414.2
2014-Dec-08 12:22N 37°34' W 009°53'4716.6
2014-Dec-08 09:33N 38°20' W 010°05'1817.6
2014-Dec-08 08:33N 38°37' W 010°10'1918.1
2014-Dec-08 07:31N 38°55' W 010°13'  
2014-Dec-02 16:30N 39°04' W 009°57'1414.8
2014-Dec-02 15:32N 38°50' W 009°57'1515.1
2014-Dec-02 14:33N 38°35' W 009°56'1515.1
2014-Dec-02 13:32N 38°20' W 009°51'1515.1
2014-Dec-02 12:33N 38°06' W 009°46'1615.9
2014-Dec-02 11:33N 37°50' W 009°42'1716.5
2014-Dec-02 10:33N 37°34' W 009°37'  
Track history (hours):
 
Tides and Currents Weather Stations Pressure Air Temp Water Temp Dewpoint Dewpoint Depression Visibility Wind Speed Wind Dir Waves Ship Positions

Al Kharsaah

Last reported at 2014-Dec-12 04:16 UTC. Time now 2014-Dec-19 03:14 UTC.
Position N 36°23' E 014°06'.

Length 315 m; draft 9.5 m.

Type: Ship (hazmat cat D). MMSI: 309333000.

Date/timePositionNaut miles runAvg speedWind from/ knotsBaromVisibWave heightAir tempDewpointWater temp
2014-Dec-12 04:16N 36°23' E 014°06'811.7
2014-Dec-12 03:33N 36°27' E 013°57'1211.8
2014-Dec-12 02:32N 36°31' E 013°43'  
2014-Dec-09 05:30N 36°00' W 005°11'24414.2
2014-Dec-08 12:22N 37°34' W 009°53'4716.6
2014-Dec-08 09:33N 38°20' W 010°05'1817.6
2014-Dec-08 08:33N 38°37' W 010°10'1918.1
2014-Dec-08 07:31N 38°55' W 010°13'  
2014-Dec-02 16:30N 39°04' W 009°57'1414.8
2014-Dec-02 15:32N 38°50' W 009°57'1515.1
2014-Dec-02 14:33N 38°35' W 009°56'1515.1
2014-Dec-02 13:32N 38°20' W 009°51'1515.1
2014-Dec-02 12:33N 38°06' W 009°46'1615.9
2014-Dec-02 11:33N 37°50' W 009°42'1716.5
2014-Dec-02 10:33N 37°34' W 009°37'  

Dump ship's entire track history